Time;durP1;ratioP1;P1;durP2;ratioP2;P2;SDS_P1;SDS_P2;PMS_P1;PMS_P2;Temp;Humidity;BMP_temperature;BMP_pressure;BME280_temperature;BME280_humidity;BME280_pressure;Samples;Min_cycle;Max_cycle;Signal;HPM_P1;HPM_P2
2023/10/27 00:01:40;;;;;;;30.48;9.63;;;;;;;12.01;100.00;99126.31;5266709;27;20063;-71
2023/10/27 00:04:10;;;;;;;28.35;9.48;;;;;;;12.02;100.00;99133.34;5264660;28;20107;-72
2023/10/27 00:06:41;;;;;;;33.28;9.43;;;;;;;12.05;100.00;99125.69;5258925;28;20043;-72
2023/10/27 00:09:11;;;;;;;37.47;10.00;;;;;;;12.06;100.00;99129.19;5263246;28;20024;-72
2023/10/27 00:11:42;;;;;;;34.40;9.00;;;;;;;12.08;100.00;99127.09;5263763;28;20070;-71
2023/10/27 00:14:12;;;;;;;28.75;9.07;;;;;;;12.08;100.00;99129.78;5266202;28;20031;-71
2023/10/27 00:16:43;;;;;;;42.00;9.27;;;;;;;12.07;100.00;99123.59;5265280;28;20024;-71
2023/10/27 00:19:13;;;;;;;38.78;9.52;;;;;;;12.08;100.00;99122.53;5265170;28;20024;-71
2023/10/27 00:21:44;;;;;;;38.60;9.55;;;;;;;12.10;100.00;99125.03;5255709;28;20024;-72
2023/10/27 00:24:14;;;;;;;36.42;9.25;;;;;;;12.11;100.00;99121.28;5256582;28;20104;-72
2023/10/27 00:26:45;;;;;;;39.78;8.90;;;;;;;12.13;100.00;99121.88;5257282;28;20066;-71
2023/10/27 00:29:15;;;;;;;37.95;9.13;;;;;;;12.21;100.00;99127.00;5265394;28;20085;-72
2023/10/27 00:31:46;;;;;;;40.30;9.70;;;;;;;12.14;100.00;99118.97;5263884;28;20073;-72
2023/10/27 00:34:16;;;;;;;33.58;9.10;;;;;;;12.17;100.00;99117.72;5262874;28;20107;-71
2023/10/27 00:36:48;;;;;;;34.15;8.27;;;;;;;12.14;100.00;99108.22;5264553;28;20030;-72
2023/10/27 00:39:18;;;;;;;29.83;8.50;;;;;;;12.15;100.00;99107.19;5263404;28;20027;-72
2023/10/27 00:41:49;;;;;;;39.60;8.35;;;;;;;12.15;100.00;99112.56;5264744;28;20024;-72
2023/10/27 00:44:19;;;;;;;32.47;9.05;;;;;;;12.16;100.00;99110.72;5262480;28;20012;-72
2023/10/27 00:46:51;;;;;;;40.20;7.32;;;;;;;12.14;100.00;99105.53;5264743;28;20495;-71
2023/10/27 00:49:21;;;;;;;30.98;7.85;;;;;;;12.17;100.00;99105.09;5263843;28;20028;-72
2023/10/27 00:51:53;;;;;;;31.52;7.15;;;;;;;12.21;100.00;99105.50;5264324;28;20016;-71
2023/10/27 00:54:25;;;;;;;35.95;7.85;;;;;;;12.20;100.00;99103.84;5263220;28;20077;-72
2023/10/27 00:56:57;;;;;;;24.65;6.97;;;;;;;12.24;100.00;99106.91;5261548;28;20040;-72
2023/10/27 00:59:28;;;;;;;33.10;8.15;;;;;;;12.23;100.00;99099.88;5260968;28;20020;-72
2023/10/27 01:01:59;;;;;;;29.80;8.27;;;;;;;12.24;100.00;99101.53;5262761;28;20447;-72
2023/10/27 01:04:29;;;;;;;35.58;7.72;;;;;;;12.26;100.00;99104.84;5257354;28;20022;-72
2023/10/27 01:07:15;;;;;;;33.97;7.68;;;;;;;12.26;100.00;99104.84;5258966;28;20024;-72
2023/10/27 01:09:45;;;;;;;34.22;7.05;;;;;;;12.27;100.00;99095.72;5262132;28;20080;-72
2023/10/27 01:12:16;;;;;;;26.80;7.43;;;;;;;12.27;100.00;99098.41;5259026;28;20030;-71
2023/10/27 01:14:58;;;;;;;32.38;8.27;;;;;;;12.29;100.00;99096.31;5259156;28;20114;-72
2023/10/27 01:17:35;;;;;;;28.50;7.72;;;;;;;12.28;100.00;99100.88;5260614;28;20034;-72
2023/10/27 01:20:06;;;;;;;25.30;7.03;;;;;;;12.27;100.00;99096.56;5261013;28;20020;-72
2023/10/27 01:22:48;;;;;;;20.98;6.70;;;;;;;12.26;100.00;99092.22;5258167;28;20032;-72
2023/10/27 01:25:34;;;;;;;30.55;7.13;;;;;;;12.28;100.00;99094.69;5262250;28;20073;-72
2023/10/27 01:28:06;;;;;;;26.40;7.03;;;;;;;12.26;100.00;99091.41;5263624;28;20492;-72
2023/10/27 01:30:42;;;;;;;26.33;7.72;;;;;;;12.26;100.00;99091.41;5260643;28;20023;-72
2023/10/27 01:33:12;;;;;;;28.00;7.18;;;;;;;12.25;100.00;99092.41;5262844;28;20024;-71
2023/10/27 01:35:51;;;;;;;33.05;8.15;;;;;;;12.27;100.00;99090.34;5263968;28;20113;-71
2023/10/27 01:38:21;;;;;;;27.50;8.32;;;;;;;12.27;100.00;99084.97;5262895;28;20024;-72
2023/10/27 01:40:51;;;;;;;25.70;7.72;;;;;;;12.26;100.00;99086.03;5261380;28;20028;-72
2023/10/27 01:43:22;;;;;;;32.05;7.55;;;;;;;12.28;100.00;99086.63;5264865;28;20093;-72
2023/10/27 01:45:53;;;;;;;26.48;7.57;;;;;;;12.32;100.00;99083.25;5263637;28;20036;-71
2023/10/27 01:48:23;;;;;;;24.10;6.65;;;;;;;12.35;100.00;99084.69;5263035;28;20028;-72
2023/10/27 01:50:55;;;;;;;26.92;7.22;;;;;;;12.31;100.00;99081.63;5258823;28;20020;-72
2023/10/27 01:53:25;;;;;;;30.10;6.72;;;;;;;12.30;100.00;99084.50;5262485;28;20024;-72
2023/10/27 01:55:56;;;;;;;23.23;8.13;;;;;;;12.29;100.00;99078.31;5263487;28;20051;-72
2023/10/27 01:58:28;;;;;;;21.33;6.28;;;;;;;12.30;100.00;99079.13;5263019;28;20024;-72
2023/10/27 02:00:58;;;;;;;36.67;8.23;;;;;;;12.29;100.00;99075.63;5263258;28;20036;-72
2023/10/27 02:03:30;;;;;;;23.17;7.38;;;;;;;12.31;100.00;99078.13;5261914;28;20043;-72
2023/10/27 02:06:01;;;;;;;26.15;7.30;;;;;;;12.31;100.00;99075.44;5262476;28;20028;-72
2023/10/27 02:08:32;;;;;;;28.15;6.72;;;;;;;12.32;100.00;99077.06;5266152;28;20077;-72
2023/10/27 02:11:03;;;;;;;25.45;7.28;;;;;;;12.30;100.00;99066.53;5255726;28;20698;-72
2023/10/27 02:13:33;;;;;;;32.40;7.05;;;;;;;12.34;100.00;99064.22;5262179;28;20470;-72
2023/10/27 02:16:04;;;;;;;24.40;6.80;;;;;;;12.34;100.00;99061.53;5266280;28;20050;-72
2023/10/27 02:18:35;;;;;;;23.23;7.07;;;;;;;12.34;100.00;99058.84;5263011;28;20104;-72
2023/10/27 02:21:05;;;;;;;29.52;6.70;;;;;;;12.32;100.00;99050.19;5267077;28;20028;-72
2023/10/27 02:23:36;;;;;;;32.65;7.75;;;;;;;12.34;100.00;99058.84;5262505;28;20020;-72
2023/10/27 02:26:06;;;;;;;22.30;6.63;;;;;;;12.34;100.00;99056.97;5263027;28;20032;-72
2023/10/27 02:28:37;;;;;;;22.08;6.63;;;;;;;12.33;100.00;99057.19;5263066;28;20472;-71
2023/10/27 02:31:08;;;;;;;23.33;7.05;;;;;;;12.33;100.00;99043.75;5267063;28;20024;-72
2023/10/27 02:33:38;;;;;;;27.90;6.95;;;;;;;12.33;100.00;99047.25;5270923;28;20383;-72
2023/10/27 02:36:09;;;;;;;28.00;7.65;;;;;;;12.34;100.00;99048.91;5262559;28;20024;-72
2023/10/27 02:38:39;;;;;;;25.15;6.88;;;;;;;12.33;100.00;99046.44;5266020;28;20024;-72
2023/10/27 02:41:11;;;;;;;28.75;6.07;;;;;;;12.33;100.00;99046.44;5270756;28;20040;-72
2023/10/27 02:43:41;;;;;;;24.13;6.75;;;;;;;12.32;100.00;99045.63;5271028;28;20031;-72
2023/10/27 02:46:13;;;;;;;26.88;6.93;;;;;;;12.34;100.00;99043.53;5270405;28;20035;-72
2023/10/27 02:48:43;;;;;;;23.65;6.72;;;;;;;12.35;100.00;99041.66;5264271;28;20031;-72
2023/10/27 02:51:15;;;;;;;25.25;7.10;;;;;;;12.33;100.00;99043.75;5265940;28;20477;-72
2023/10/27 02:53:45;;;;;;;24.30;7.45;;;;;;;12.33;100.00;99035.69;5265566;28;20544;-72
2023/10/27 02:56:16;;;;;;;28.77;7.10;;;;;;;12.29;100.00;99042.53;5266315;28;20103;-72
2023/10/27 02:58:47;;;;;;;24.27;6.00;;;;;;;12.30;100.00;99042.34;5266623;28;20028;-72
2023/10/27 03:01:17;;;;;;;23.83;7.07;;;;;;;12.31;100.00;99040.47;5267520;28;20590;-72
2023/10/27 03:03:48;;;;;;;24.33;6.38;;;;;;;12.28;100.00;99044.41;5269018;28;20035;-72
2023/10/27 03:06:18;;;;;;;26.73;6.82;;;;;;;12.28;100.00;99040.91;5265927;28;20134;-72
2023/10/27 03:08:49;;;;;;;27.98;6.95;;;;;;;12.28;100.00;99039.03;5266096;28;20020;-72
2023/10/27 03:11:19;;;;;;;21.33;6.10;;;;;;;12.32;100.00;99040.25;5262702;28;20492;-72
2023/10/27 03:13:50;;;;;;;26.17;6.72;;;;;;;12.32;100.00;99044.81;5269037;28;20687;-72
2023/10/27 03:16:21;;;;;;;24.75;6.63;;;;;;;12.33;100.00;99041.88;5265455;28;20039;-72
2023/10/27 03:18:53;;;;;;;17.92;5.90;;;;;;;12.38;100.00;99041.22;5265434;28;20024;-72
2023/10/27 03:21:24;;;;;;;17.63;6.82;;;;;;;12.36;100.00;99044.16;5266831;28;20038;-72
2023/10/27 03:23:54;;;;;;;19.42;6.15;;;;;;;12.34;100.00;99048.91;5263788;28;20020;-72
2023/10/27 03:26:25;;;;;;;13.45;4.50;;;;;;;12.35;100.00;99039.81;5266105;28;20120;-72
2023/10/27 03:28:55;;;;;;;19.55;6.72;;;;;;;12.34;100.00;99040.84;5265494;28;20024;-72
2023/10/27 03:31:26;;;;;;;13.57;5.50;;;;;;;12.33;100.00;99041.88;5267102;28;20081;-72
2023/10/27 03:33:56;;;;;;;14.95;5.43;;;;;;;12.32;100.00;99048.31;5266741;28;20695;-72
2023/10/27 03:36:27;;;;;;;15.13;5.70;;;;;;;12.29;100.00;99037.16;5265491;28;20039;-72
2023/10/27 03:38:57;;;;;;;13.57;5.95;;;;;;;12.28;100.00;99043.59;5260890;28;20102;-72
2023/10/27 03:41:28;;;;;;;20.95;6.60;;;;;;;12.27;100.00;99044.66;5265078;28;20035;-72
2023/10/27 03:43:58;;;;;;;15.50;6.13;;;;;;;12.26;100.00;99040.31;5264855;28;20130;-72
2023/10/27 03:46:28;;;;;;;19.83;6.57;;;;;;;12.26;100.00;99056.44;5265024;28;20024;-72
2023/10/27 03:48:59;;;;;;;19.20;5.82;;;;;;;12.27;100.00;99052.72;5265572;28;20024;-72
2023/10/27 03:51:31;;;;;;;25.23;9.13;;;;;;;12.26;100.00;99046.50;5264713;28;20028;-72
2023/10/27 03:54:01;;;;;;;21.15;6.05;;;;;;;12.26;100.00;99048.38;5264416;28;20031;-72
2023/10/27 03:56:33;;;;;;;13.30;5.95;;;;;;;12.25;100.00;99044.88;5263615;28;20485;-72
2023/10/27 03:59:03;;;;;;;16.15;6.25;;;;;;;12.24;100.00;99043.19;5263180;28;20027;-72
2023/10/27 04:01:34;;;;;;;21.65;6.20;;;;;;;12.22;100.00;99041.78;5263731;28;20102;-72
2023/10/27 04:04:05;;;;;;;15.60;5.82;;;;;;;12.20;100.00;99044.72;5264543;28;20035;-72
2023/10/27 04:06:35;;;;;;;19.58;6.20;;;;;;;12.18;100.00;99044.91;5262175;28;20451;-72
2023/10/27 04:09:06;;;;;;;23.38;8.40;;;;;;;12.15;100.00;99050.75;5264850;28;20114;-71
2023/10/27 04:11:36;;;;;;;19.77;6.55;;;;;;;12.16;100.00;99051.56;5264258;28;20031;-72
2023/10/27 04:14:07;;;;;;;23.63;7.03;;;;;;;12.16;100.00;99044.31;5265168;28;20032;-72
2023/10/27 04:16:37;;;;;;;15.65;6.78;;;;;;;12.18;100.00;99050.28;5267240;28;20491;-72
2023/10/27 04:19:08;;;;;;;26.63;8.35;;;;;;;12.21;100.00;99054.41;5264702;28;20036;-71
2023/10/27 04:21:38;;;;;;;18.77;7.38;;;;;;;12.23;100.00;99046.94;5267198;28;20106;-71
2023/10/27 04:24:09;;;;;;;20.67;7.80;;;;;;;12.24;100.00;99053.97;5254988;28;20012;-71
2023/10/27 04:26:39;;;;;;;24.98;8.32;;;;;;;12.28;100.00;99059.72;5269753;28;20045;-71
2023/10/27 04:29:10;;;;;;;19.50;6.30;;;;;;;12.30;100.00;99057.63;5269624;28;20031;-71
2023/10/27 04:31:40;;;;;;;23.17;8.75;;;;;;;12.31;100.00;99049.34;5269724;28;20098;-72
2023/10/27 04:34:11;;;;;;;22.38;7.78;;;;;;;12.30;100.00;99057.63;5266482;28;20443;-72
2023/10/27 04:36:43;;;;;;;26.27;9.40;;;;;;;12.31;100.00;99057.44;5268752;28;20023;-72
2023/10/27 04:39:14;;;;;;;28.30;8.98;;;;;;;12.33;100.00;99052.63;5269684;28;20028;-72
2023/10/27 04:41:44;;;;;;;29.27;10.55;;;;;;;12.34;100.00;99051.59;5266933;28;20472;-72
2023/10/27 04:44:17;;;;;;;37.47;14.73;;;;;;;12.36;100.00;99065.66;5269045;28;20103;-72
2023/10/27 04:46:47;;;;;;;38.22;13.00;;;;;;;12.36;100.00;99062.97;5269787;28;20034;-72
2023/10/27 04:49:18;;;;;;;31.95;12.50;;;;;;;12.39;100.00;99059.00;5266905;28;20114;-72
2023/10/27 04:51:48;;;;;;;37.75;12.73;;;;;;;12.39;100.00;99065.19;5264380;28;20027;-72
2023/10/27 04:54:19;;;;;;;40.67;13.32;;;;;;;12.42;100.00;99055.88;5265756;28;20024;-72
2023/10/27 04:56:49;;;;;;;45.53;13.38;;;;;;;12.39;100.00;99062.50;5267797;28;20103;-72
2023/10/27 04:59:20;;;;;;;47.58;13.18;;;;;;;12.41;100.00;99057.75;5268867;28;20031;-72
2023/10/27 05:01:50;;;;;;;46.13;14.27;;;;;;;12.40;100.00;99060.66;5268518;28;20118;-72
2023/10/27 05:04:21;;;;;;;34.17;13.75;;;;;;;12.37;100.00;99059.22;5265200;28;20034;-71
2023/10/27 05:06:52;;;;;;;46.55;14.02;;;;;;;12.37;100.00;99061.91;5263896;28;20198;-71
2023/10/27 05:09:22;;;;;;;68.50;14.50;;;;;;;12.35;100.00;99060.47;5263811;28;20039;-72
2023/10/27 05:11:53;;;;;;;49.78;15.57;;;;;;;12.34;100.00;99059.66;5265135;28;20089;-72
2023/10/27 05:14:24;;;;;;;38.78;12.77;;;;;;;12.37;100.00;99061.09;5262848;28;20127;-72
2023/10/27 05:16:55;;;;;;;46.97;15.88;;;;;;;12.34;100.00;99065.03;5268347;28;20451;-72
2023/10/27 05:19:25;;;;;;;44.70;19.52;;;;;;;12.36;100.00;99056.75;5264105;28;20123;-71
2023/10/27 05:21:56;;;;;;;47.30;18.90;;;;;;;12.37;100.00;99056.53;5260212;28;20023;-72
2023/10/27 05:24:27;;;;;;;44.97;17.35;;;;;;;12.36;100.00;99059.47;5253352;28;20020;-71
2023/10/27 05:26:57;;;;;;;40.90;12.85;;;;;;;12.33;100.00;99070.63;5259074;28;20457;-71
2023/10/27 05:29:28;;;;;;;32.00;11.82;;;;;;;12.32;100.00;99061.75;5250306;28;20455;-72
2023/10/27 05:31:59;;;;;;;32.30;10.90;;;;;;;12.29;100.00;99064.06;5255527;28;20047;-72
2023/10/27 05:34:30;;;;;;;34.97;10.95;;;;;;;12.32;100.00;99063.63;5264575;28;20388;-72
2023/10/27 05:37:01;;;;;;;37.67;11.32;;;;;;;12.31;100.00;99062.81;5259423;28;20035;-72
2023/10/27 05:39:32;;;;;;;31.77;11.20;;;;;;;12.31;100.00;99065.50;5264987;28;20117;-72
2023/10/27 05:42:03;;;;;;;34.28;11.07;;;;;;;12.34;100.00;99066.91;5262439;28;20055;-72
2023/10/27 05:44:34;;;;;;;32.70;12.52;;;;;;;12.32;100.00;99067.13;5265607;28;20051;-72
2023/10/27 05:47:05;;;;;;;37.85;14.52;;;;;;;12.33;100.00;99058.00;5262526;28;20047;-72
2023/10/27 05:49:36;;;;;;;38.78;12.15;;;;;;;12.31;100.00;99068.19;5259146;28;20061;-72
2023/10/27 05:52:06;;;;;;;38.58;12.82;;;;;;;12.31;100.00;99068.19;5266286;28;20024;-71
2023/10/27 05:54:37;;;;;;;43.38;14.43;;;;;;;12.33;100.00;99063.41;5266141;28;20035;-72
2023/10/27 05:57:08;;;;;;;43.65;17.23;;;;;;;12.36;100.00;99068.34;5261756;28;20062;-72
2023/10/27 05:59:39;;;;;;;46.13;17.58;;;;;;;12.36;100.00;99071.03;5261861;28;20066;-72
2023/10/27 06:02:09;;;;;;;39.63;18.00;;;;;;;12.37;100.00;99072.66;5260845;28;20430;-72
2023/10/27 06:04:39;;;;;;;44.67;18.48;;;;;;;12.36;100.00;99067.53;5263370;28;20058;-73
2023/10/27 06:07:15;;;;;;;48.33;17.58;;;;;;;12.33;100.00;99068.78;5263603;28;20024;-72
2023/10/27 06:09:46;;;;;;;41.80;15.57;;;;;;;12.35;100.00;99071.22;5256479;28;20392;-72
2023/10/27 06:12:17;;;;;;;40.97;13.60;;;;;;;12.34;100.00;99075.78;5258381;28;20027;-72
2023/10/27 06:14:47;;;;;;;37.40;15.40;;;;;;;12.36;100.00;99076.41;5258348;28;20492;-72
2023/10/27 06:17:18;;;;;;;44.83;15.05;;;;;;;12.37;100.00;99072.66;5262381;28;20028;-72
2023/10/27 06:19:48;;;;;;;42.25;15.45;;;;;;;12.38;100.00;99070.81;5259616;28;20028;-72
2023/10/27 06:22:18;;;;;;;35.35;15.98;;;;;;;12.36;100.00;99075.59;5260427;28;20073;-72
2023/10/27 06:24:49;;;;;;;37.30;13.65;;;;;;;12.37;100.00;99074.53;5256683;28;20373;-72
2023/10/27 06:27:20;;;;;;;37.22;13.45;;;;;;;12.36;100.00;99076.41;5262870;28;20028;-72
2023/10/27 06:29:50;;;;;;;35.67;14.43;;;;;;;12.36;100.00;99080.97;5261697;28;20514;-72
2023/10/27 06:32:22;;;;;;;51.15;16.33;;;;;;;12.37;100.00;99083.44;5260325;28;20127;-72
2023/10/27 06:34:54;;;;;;;43.20;16.73;;;;;;;12.38;100.00;99084.25;5261336;28;20361;-72
2023/10/27 06:37:24;;;;;;;51.67;17.83;;;;;;;12.38;100.00;99082.38;5260667;28;20081;-72
2023/10/27 06:39:58;;;;;;;59.28;18.70;;;;;;;12.39;100.00;99085.88;5259390;28;20028;-72
2023/10/27 06:42:29;;;;;;;46.42;16.75;;;;;;;12.41;100.00;99097.25;5261687;28;20617;-71
2023/10/27 06:45:00;;;;;;;45.45;15.75;;;;;;;12.41;100.00;99098.09;5260284;28;20031;-72
2023/10/27 06:47:30;;;;;;;51.25;18.23;;;;;;;12.39;100.00;99097.47;5262863;28;20020;-72
2023/10/27 06:50:03;;;;;;;47.80;16.77;;;;;;;12.40;100.00;99103.69;5259364;28;20385;-72
2023/10/27 06:52:34;;;;;;;54.88;21.60;;;;;;;12.42;100.00;99106.97;5258354;28;20117;-72
2023/10/27 06:55:06;;;;;;;42.63;15.48;;;;;;;12.43;100.00;99108.63;5263790;28;20505;-72
2023/10/27 06:57:37;;;;;;;39.38;14.88;;;;;;;12.43;100.00;99111.31;5264693;28;20392;-72
2023/10/27 07:00:09;;;;;;;48.15;13.63;;;;;;;12.45;100.00;99114.59;5263105;28;20147;-72
2023/10/27 07:02:39;;;;;;;41.55;14.60;;;;;;;12.49;100.00;99109.59;5265799;28;20661;-72
2023/10/27 07:05:13;;;;;;;58.47;17.30;;;;;;;12.50;100.00;99117.47;5266737;28;20028;-72
2023/10/27 07:07:44;;;;;;;44.20;16.15;;;;;;;12.54;100.00;99115.94;5263802;28;20047;-72
2023/10/27 07:10:15;;;;;;;47.10;13.77;;;;;;;12.58;100.00;99117.16;5262505;28;20035;-72
2023/10/27 07:12:47;;;;;;;41.42;14.27;;;;;;;12.58;100.00;99127.91;5265107;28;20070;-72
2023/10/27 07:15:19;;;;;;;46.58;15.90;;;;;;;12.62;100.00;99131.00;5264291;28;20024;-72
2023/10/27 07:17:49;;;;;;;44.00;16.77;;;;;;;12.63;100.00;99129.94;5259204;28;20024;-72
2023/10/27 07:20:20;;;;;;;45.70;15.30;;;;;;;12.66;100.00;99130.34;5265346;28;20120;-72
2023/10/27 07:22:50;;;;;;;54.83;22.48;;;;;;;12.65;100.00;99133.22;5262488;28;20057;-72
2023/10/27 07:25:21;;;;;;;52.58;20.52;;;;;;;12.65;100.00;99139.47;5260904;28;20023;-72
2023/10/27 07:27:51;;;;;;;40.33;15.27;;;;;;;12.65;100.00;99142.16;5265305;28;20155;-72
2023/10/27 07:30:22;;;;;;;35.78;13.75;;;;;;;12.70;100.00;99130.69;5264668;28;20108;-72
2023/10/27 07:32:54;;;;;;;41.08;13.60;;;;;;;12.65;100.00;99134.09;5262870;28;20579;-72
2023/10/27 07:35:25;;;;;;;43.92;15.27;;;;;;;12.73;100.00;99134.81;5265252;28;20035;-71
2023/10/27 07:37:55;;;;;;;37.92;15.30;;;;;;;12.75;100.00;99135.41;5263529;28;20028;-72
2023/10/27 07:40:26;;;;;;;67.30;30.95;;;;;;;12.78;100.00;99143.88;5266473;28;20113;-72
2023/10/27 07:42:58;;;;;;;57.53;26.88;;;;;;;12.83;100.00;99138.66;5262630;28;20028;-71
2023/10/27 07:45:28;;;;;;;39.47;19.92;;;;;;;12.90;100.00;99133.19;5263633;28;20020;-72
2023/10/27 07:48:00;;;;;;;32.35;12.55;;;;;;;12.91;100.00;99145.63;5264051;28;20054;-72
2023/10/27 07:50:32;;;;;;;28.95;11.05;;;;;;;12.89;100.00;99145.00;5263557;28;20032;-71
2023/10/27 07:53:03;;;;;;;26.48;10.77;;;;;;;12.97;100.00;99142.03;5262727;28;20548;-72
2023/10/27 07:55:35;;;;;;;29.42;10.73;;;;;;;13.04;100.00;99150.84;5263982;28;20088;-72
2023/10/27 07:58:05;;;;;;;29.65;11.73;;;;;;;13.06;100.00;99154.16;5262750;28;20020;-72
2023/10/27 08:00:37;;;;;;;31.45;14.25;;;;;;;13.11;100.00;99146.25;5264366;28;20619;-72
2023/10/27 08:03:07;;;;;;;29.15;10.00;;;;;;;13.19;100.00;99142.41;5259708;28;20390;-72
2023/10/27 08:05:38;;;;;;;27.00;8.80;;;;;;;13.27;100.00;99144.84;5262739;28;20073;-72
2023/10/27 08:08:08;;;;;;;21.40;9.73;;;;;;;13.37;100.00;99145.13;5262514;28;20063;-72
2023/10/27 08:10:39;;;;;;;21.90;8.52;;;;;;;13.34;100.00;99156.34;5261044;28;20028;-73
2023/10/27 08:13:10;;;;;;;24.77;8.68;;;;;;;13.34;100.00;99171.69;5257813;28;20032;-73
2023/10/27 08:15:40;;;;;;;28.70;8.75;;;;;;;13.31;100.00;99172.16;5262989;28;20024;-73
2023/10/27 08:18:13;;;;;;;21.40;7.35;;;;;;;13.23;100.00;99175.13;5258425;28;20061;-73
2023/10/27 08:20:43;;;;;;;21.55;8.45;;;;;;;13.20;100.00;99179.06;5259896;28;20039;-73
2023/10/27 08:23:14;;;;;;;21.15;10.02;;;;;;;13.26;100.00;99169.31;5258779;28;20394;-73
2023/10/27 08:25:51;;;;;;;26.35;10.02;;;;;;;13.29;100.00;99179.63;5262526;28;20016;-73
2023/10/27 08:28:21;;;;;;;42.97;14.23;;;;;;;13.30;100.00;99182.06;5262801;28;20028;-73
2023/10/27 08:30:53;;;;;;;23.25;8.32;;;;;;;13.27;100.00;99185.25;5262646;28;20031;-73
2023/10/27 08:33:24;;;;;;;19.60;8.27;;;;;;;13.28;100.00;99183.38;5259262;28;20035;-73
2023/10/27 08:36:01;;;;;;;25.13;8.35;;;;;;;13.31;100.00;99175.66;5259675;28;20084;-72
2023/10/27 08:38:32;;;;;;;26.00;10.63;;;;;;;13.43;100.00;99187.31;5262453;28;20081;-72
2023/10/27 08:41:05;;;;;;;23.25;10.05;;;;;;;13.52;100.00;99184.34;5262060;28;20031;-72
2023/10/27 08:43:36;;;;;;;18.25;7.45;;;;;;;13.43;100.00;99186.50;5261261;28;20192;-71
2023/10/27 08:46:08;;;;;;;16.20;6.88;;;;;;;13.52;100.00;99195.94;5263601;28;20024;-71
2023/10/27 08:48:40;;;;;;;16.20;6.65;;;;;;;13.44;100.00;99191.66;5262458;28;20039;-71
2023/10/27 08:51:14;;;;;;;15.48;7.38;;;;;;;13.47;100.00;99191.22;5258823;28;20068;-71
2023/10/27 08:53:45;;;;;;;17.60;6.00;;;;;;;13.39;100.00;99185.31;5260439;28;20695;-71
2023/10/27 08:56:16;;;;;;;21.25;7.38;;;;;;;13.48;100.00;99190.16;5262322;28;20032;-71
2023/10/27 08:58:49;;;;;;;18.00;6.15;;;;;;;13.41;100.00;99184.06;5261800;28;20032;-71
2023/10/27 09:01:20;;;;;;;24.38;5.88;;;;;;;13.59;100.00;99188.59;5262406;28;20027;-71
2023/10/27 09:04:09;;;;;;;17.00;6.57;;;;;;;13.56;100.00;99182.84;5261580;28;20481;-71
2023/10/27 09:06:41;;;;;;;15.52;6.38;;;;;;;13.74;100.00;99189.00;5261661;28;20396;-72
2023/10/27 09:09:12;;;;;;;16.98;6.35;;;;;;;13.94;100.00;99182.53;5260916;28;20393;-72
2023/10/27 09:11:44;;;;;;;18.02;6.72;;;;;;;14.03;100.00;99189.25;5257855;28;20024;-71
2023/10/27 09:14:23;;;;;;;16.15;6.45;;;;;;;14.02;100.00;99190.31;5260250;28;20078;-73
2023/10/27 09:17:05;;;;;;;20.13;7.40;;;;;;;14.18;100.00;99195.06;5258831;28;20134;-71
2023/10/27 09:19:36;;;;;;;15.18;6.50;;;;;;;14.31;100.00;99198.59;5260668;28;20057;-71
2023/10/27 09:22:15;;;;;;;23.17;7.82;;;;;;;14.29;100.00;99203.41;5262110;28;20052;-71
2023/10/27 09:24:46;;;;;;;20.85;7.60;;;;;;;14.27;100.00;99208.22;5254616;28;20028;-71
2023/10/27 09:27:27;;;;;;;16.75;7.20;;;;;;;14.16;100.00;99207.97;5262062;28;20489;-71
2023/10/27 09:29:58;;;;;;;24.02;8.00;;;;;;;14.09;100.00;99203.69;5265161;28;20429;-71
2023/10/27 09:32:29;;;;;;;31.63;11.35;;;;;;;14.16;100.00;99201.75;5261651;28;20149;-71
2023/10/27 09:35:09;;;;;;;22.80;7.40;;;;;;;14.09;100.00;99204.53;5261805;28;20085;-71
2023/10/27 09:37:41;;;;;;;19.08;8.90;;;;;;;14.02;100.00;99200.28;5261359;28;20101;-71
2023/10/27 09:40:13;;;;;;;16.83;8.80;;;;;;;13.95;100.00;99208.44;5259136;28;20047;-71
2023/10/27 09:42:45;;;;;;;20.92;8.90;;;;;;;13.93;100.00;99205.16;5261799;28;20485;-71
2023/10/27 09:45:17;;;;;;;18.17;8.27;;;;;;;13.93;100.00;99219.47;5261884;28;20024;-71
2023/10/27 09:47:50;;;;;;;24.23;8.57;;;;;;;13.87;100.00;99215.00;5261423;28;20024;-71
2023/10/27 09:50:25;;;;;;;22.33;8.75;;;;;;;13.86;100.00;99212.53;5257027;28;20046;-71
2023/10/27 09:52:59;;;;;;;27.17;8.60;;;;;;;13.87;100.00;99215.00;5261580;28;20032;-71
2023/10/27 09:55:31;;;;;;;16.33;7.60;;;;;;;13.79;100.00;99212.59;5261984;28;20043;-71
2023/10/27 09:58:02;;;;;;;27.02;7.35;;;;;;;13.77;100.00;99214.69;5261455;28;20016;-71
2023/10/27 10:00:34;;;;;;;23.73;9.88;;;;;;;13.78;100.00;99223.59;5262034;28;20036;-71
2023/10/27 10:03:06;;;;;;;28.45;10.43;;;;;;;13.76;100.00;99215.75;5261418;28;20020;-71
2023/10/27 10:06:08;;;;;;;16.42;8.45;;;;;;;13.69;100.00;99223.91;5265792;28;20054;-71
2023/10/27 10:08:40;;;;;;;23.17;8.30;;;;;;;13.72;100.00;99228.03;5261212;28;20036;-71
2023/10/27 10:11:14;;;;;;;22.05;9.05;;;;;;;13.68;100.00;99222.25;5260983;28;20032;-71
2023/10/27 10:13:46;;;;;;;26.83;8.75;;;;;;;13.60;100.00;99229.81;5257846;28;20067;-71
2023/10/27 10:16:17;;;;;;;25.73;7.63;;;;;;;13.61;100.00;99229.63;5261678;28;20028;-71
2023/10/27 10:18:48;;;;;;;20.45;8.23;;;;;;;13.46;100.00;99231.88;5261302;28;20031;-71
2023/10/27 10:21:34;;;;;;;22.05;8.10;;;;;;;13.44;100.00;99242.84;5261325;28;20024;-71
2023/10/27 10:24:08;;;;;;;17.23;7.72;;;;;;;13.45;100.00;99231.03;5253997;28;20077;-71
2023/10/27 10:27:01;;;;;;;20.95;9.07;;;;;;;13.44;100.00;99228.56;5264700;28;20431;-71
2023/10/27 10:29:33;;;;;;;16.15;6.30;;;;;;;13.44;100.00;99228.56;5266942;28;20104;-71
2023/10/27 10:32:30;;;;;;;18.25;7.70;;;;;;;13.53;100.00;99229.91;5270317;28;20032;-71
2023/10/27 10:35:22;;;;;;;23.48;6.78;;;;;;;13.53;100.00;99227.22;5269096;28;20024;-72
2023/10/27 10:37:53;;;;;;;17.98;6.93;;;;;;;13.60;100.00;99233.34;5264048;28;20089;-72
2023/10/27 10:40:26;;;;;;;21.55;6.60;;;;;;;13.72;100.00;99228.03;5265339;28;20036;-71
2023/10/27 10:43:18;;;;;;;13.93;6.15;;;;;;;13.91;100.00;99232.34;5269106;28;20038;-71
2023/10/27 10:45:53;;;;;;;21.58;5.93;;;;;;;14.05;100.00;99235.69;5264501;28;20055;-71
2023/10/27 10:48:26;;;;;;;18.33;5.25;;;;;;;14.18;100.00;99242.78;5264141;28;20714;-71
2023/10/27 10:51:03;;;;;;;18.30;5.60;;;;;;;14.34;100.00;99231.34;5264147;28;20024;-71
2023/10/27 10:53:34;;;;;;;12.13;5.30;;;;;;;14.48;100.00;99237.41;5262919;28;20024;-71
2023/10/27 10:56:05;;;;;;;15.70;5.03;;;;;;;14.60;100.00;99246.34;5258721;28;20020;-71
2023/10/27 10:58:37;;;;;;;15.65;4.10;;;;;;;14.39;100.00;99241.44;5261013;28;20024;-71
2023/10/27 11:01:23;;;;;;;13.88;3.90;;;;;;;14.31;100.00;99239.91;5263496;28;20036;-71
2023/10/27 11:03:54;;;;;;;;;;;;;;;14.39;100.00;99241.44;5265206;28;20057;-71
2023/10/27 11:06:26;;;;;;;11.27;4.15;;;;;;;14.38;100.00;99254.13;5266849;28;19912;-71
2023/10/27 11:08:57;;;;;;;12.27;4.40;;;;;;;14.11;100.00;99248.28;5263174;28;20051;-71
2023/10/27 11:11:28;;;;;;;13.65;3.90;;;;;;;14.09;100.00;99247.66;5264934;28;20710;-71
2023/10/27 11:13:59;;;;;;;12.50;4.18;;;;;;;14.17;100.00;99246.53;5263618;28;20051;-71
2023/10/27 11:16:31;;;;;;;9.95;4.60;;;;;;;14.18;100.00;99240.09;5264148;28;20028;-71
2023/10/27 11:19:02;;;;;;;19.50;4.75;;;;;;;14.27;100.00;99237.91;5263008;28;20020;-71
2023/10/27 11:21:33;;;;;;;14.40;4.32;;;;;;;14.27;100.00;99246.00;5263990;28;20024;-71
2023/10/27 11:24:10;;;;;;;18.88;4.30;;;;;;;14.19;100.00;99237.16;5261809;28;20407;-71
2023/10/27 11:26:41;;;;;;;12.30;4.32;;;;;;;14.24;100.00;99247.25;5260189;28;20062;-71
2023/10/27 11:29:12;;;;;;;11.20;4.00;;;;;;;14.20;100.00;99241.50;5267286;28;20120;-71
2023/10/27 11:31:44;;;;;;;14.90;4.00;;;;;;;14.33;100.00;99251.28;5263300;28;20165;-71
2023/10/27 11:34:20;;;;;;;16.77;4.28;;;;;;;14.34;100.00;99249.41;5263768;28;20031;-71
2023/10/27 11:36:59;;;;;;;12.68;4.30;;;;;;;14.11;100.00;99250.97;5263499;28;20035;-71